createdAt,value
2022-11-16T00:04:26.271Z,62.93
2022-11-16T00:09:32.085Z,63.60
2022-11-16T00:14:36.017Z,65.40
2022-11-16T00:19:38.672Z,63.07
2022-11-16T00:24:41.773Z,65.40
2022-11-16T00:29:44.438Z,58.67
2022-11-16T00:34:47.720Z,60.37
2022-11-16T00:39:50.409Z,63.00
2022-11-16T00:44:53.049Z,58.07
2022-11-16T00:49:55.819Z,67.43
2022-11-16T00:54:58.507Z,55.70
2022-11-16T01:00:01.287Z,60.80
2022-11-16T01:05:04.395Z,69.80
2022-11-16T01:10:11.195Z,74.43
2022-11-16T01:15:14.795Z,60.90
2022-11-16T01:20:20.911Z,66.90
2022-11-16T01:25:23.916Z,69.60
2022-11-16T01:30:26.586Z,66.63
2022-11-16T01:35:37.515Z,65.73
2022-11-16T01:40:40.900Z,70.33
2022-11-16T01:45:44.903Z,66.77
2022-11-16T01:50:50.341Z,61.10
2022-11-16T01:55:53.841Z,61.57
2022-11-16T02:01:16.761Z,60.33
2022-11-16T02:06:27.634Z,55.70
2022-11-16T02:11:50.432Z,58.33
2022-11-16T02:17:05.496Z,57.97
2022-11-16T02:22:17.922Z,55.40
2022-11-16T02:27:26.796Z,52.20
2022-11-16T02:32:41.275Z,47.43
2022-11-16T02:37:50.164Z,48.27
2022-11-16T02:43:15.463Z,44.27
2022-11-16T02:48:24.901Z,46.53
2022-11-16T02:53:27.871Z,51.23
2022-11-16T02:58:34.258Z,58.13
2022-11-16T03:03:50.691Z,63.53
2022-11-16T03:09:11.090Z,59.23
2022-11-16T03:14:18.659Z,62.07
2022-11-16T03:19:33.475Z,60.53
2022-11-16T03:24:36.445Z,57.17
2022-11-16T03:29:45.156Z,47.17
2022-11-16T03:34:59.491Z,43.87
2022-11-16T03:40:05.802Z,46.33
2022-11-16T03:45:12.166Z,47.43
2022-11-16T03:50:15.059Z,48.40
2022-11-16T03:55:18.680Z,48.43
2022-11-16T04:00:21.457Z,41.53
2022-11-16T04:05:42.309Z,45.00
2022-11-16T04:11:03.871Z,49.77
2022-11-16T04:16:28.781Z,47.47
2022-11-16T04:21:58.069Z,42.77
2022-11-16T04:27:27.678Z,38.63
2022-11-16T04:32:48.953Z,42.07
2022-11-16T04:37:54.743Z,38.47
2022-11-16T04:43:05.741Z,42.47
2022-11-16T04:48:13.065Z,36.43
2022-11-16T04:53:16.196Z,38.67
2022-11-16T04:58:22.862Z,44.87
2022-11-16T05:03:25.557Z,45.83
2022-11-16T05:08:28.005Z,48.17
2022-11-16T05:13:31.352Z,45.57
2022-11-16T05:18:34.472Z,42.57
2022-11-16T05:23:57.169Z,43.67
2022-11-16T05:29:04.173Z,40.67
2022-11-16T05:34:06.849Z,38.40
2022-11-16T05:39:09.184Z,44.70
2022-11-16T05:44:15.380Z,43.10
2022-11-16T05:49:18.035Z,39.67
2022-11-16T05:54:24.796Z,38.83
2022-11-16T05:59:27.800Z,35.97
2022-11-16T06:04:33.556Z,37.30
2022-11-16T06:09:36.754Z,34.23
2022-11-16T06:14:48.780Z,33.53
2022-11-16T06:19:51.317Z,28.10
2022-11-16T06:24:53.815Z,31.83
2022-11-16T06:29:56.700Z,29.70
2022-11-16T06:34:59.593Z,32.70
2022-11-16T06:40:02.349Z,32.23
2022-11-16T06:45:09.755Z,33.27
2022-11-16T06:50:19.246Z,28.03
2022-11-16T06:55:22.451Z,31.13
2022-11-16T07:00:24.964Z,29.60
2022-11-16T07:05:27.433Z,30.53
2022-11-16T07:10:30.568Z,25.53
2022-11-16T07:15:33.731Z,33.47
2022-11-16T07:20:38.347Z,34.27
2022-11-16T07:25:40.899Z,33.23
2022-11-16T07:30:44.739Z,33.50
2022-11-16T07:35:53.405Z,31.80
2022-11-16T07:41:00.827Z,35.73
2022-11-16T07:46:45.285Z,30.03
2022-11-16T07:51:41.100Z,29.27
2022-11-16T07:56:58.708Z,29.90
2022-11-16T08:02:01.483Z,31.50
2022-11-16T08:07:04.183Z,31.97
2022-11-16T08:12:10.608Z,32.87
2022-11-16T08:17:13.215Z,31.67
2022-11-16T08:22:15.866Z,29.83
2022-11-16T08:27:19.810Z,31.33
2022-11-16T08:32:29.692Z,28.63
2022-11-16T08:37:32.612Z,27.07
2022-11-16T08:42:39.389Z,20.57
2022-11-16T08:47:45.047Z,19.77
2022-11-16T08:52:48.081Z,13.53
2022-11-16T08:57:50.711Z,12.87
2022-11-16T09:02:54.406Z,13.20
2022-11-16T09:07:56.741Z,14.50
2022-11-16T09:12:59.042Z,14.00
2022-11-16T09:18:01.449Z,10.97
2022-11-16T09:23:04.116Z,16.77
2022-11-16T09:28:06.533Z,13.53
2022-11-16T09:33:09.157Z,15.47
2022-11-16T09:38:16.138Z,15.37
2022-11-16T09:43:45.376Z,16.47
2022-11-16T09:48:49.916Z,19.23
2022-11-16T09:54:08.456Z,17.03
2022-11-16T09:59:33.998Z,23.60
2022-11-16T10:04:38.371Z,22.40
2022-11-16T10:09:40.951Z,22.20
2022-11-16T10:15:04.662Z,23.37
2022-11-16T10:20:37.053Z,28.00
2022-11-16T10:25:51.967Z,26.73
2022-11-16T10:31:07.564Z,25.70
2022-11-16T10:36:14.525Z,27.83
2022-11-16T10:41:39.915Z,25.63
2022-11-16T10:46:46.940Z,22.93
2022-11-16T10:51:49.274Z,25.03
2022-11-16T10:57:06.392Z,21.93
2022-11-16T11:02:34.763Z,15.33
2022-11-16T11:07:40.009Z,14.83
2022-11-16T11:13:18.047Z,18.63
2022-11-16T11:18:23.507Z,22.70
2022-11-16T11:23:27.195Z,24.17
2022-11-16T11:28:32.586Z,16.87
2022-11-16T11:33:42.435Z,16.20
2022-11-16T11:39:13.143Z,19.43
2022-11-16T11:44:18.419Z,11.73
2022-11-16T11:49:23.505Z,15.77
2022-11-16T11:54:54.605Z,15.80
2022-11-16T11:59:56.863Z,24.20
2022-11-16T12:05:08.707Z,17.13
2022-11-16T12:10:32.328Z,17.37
2022-11-16T12:15:59.500Z,16.43
2022-11-16T12:21:17.995Z,29.57
2022-11-16T12:26:31.960Z,20.83
2022-11-16T12:31:53.568Z,14.70
2022-11-16T12:37:39.624Z,17.23
2022-11-16T12:43:07.270Z,15.03
2022-11-16T12:48:44.721Z,12.57
2022-11-16T12:54:08.965Z,9.73
2022-11-16T12:59:25.493Z,10.63
2022-11-16T13:04:41.581Z,9.97
2022-11-16T13:09:49.017Z,13.47
2022-11-16T13:14:56.093Z,16.60
2022-11-16T13:20:29.543Z,10.83
2022-11-16T13:26:02.436Z,12.67
2022-11-16T13:31:42.669Z,10.37
2022-11-16T13:36:46.380Z,10.83
2022-11-16T13:42:07.263Z,16.70
2022-11-16T13:47:22.004Z,11.80
2022-11-16T13:58:18.873Z,8.97
2022-11-16T14:03:21.148Z,8.87
2022-11-16T14:08:33.918Z,12.70
2022-11-16T14:13:40.380Z,12.20
2022-11-16T14:18:44.182Z,9.63
2022-11-16T14:24:10.460Z,10.20
2022-11-16T14:29:34.258Z,12.33
2022-11-16T14:34:46.816Z,12.97
2022-11-16T14:40:16.847Z,10.13
2022-11-16T14:45:31.128Z,12.83
2022-11-16T14:50:38.148Z,13.53
2022-11-16T14:55:46.278Z,13.50
2022-11-16T15:00:54.030Z,13.17
2022-11-16T15:06:01.062Z,11.03
2022-11-16T15:11:19.800Z,9.00
2022-11-16T15:16:22.134Z,11.90
2022-11-16T15:21:25.018Z,9.87
2022-11-16T15:26:27.321Z,8.60
2022-11-16T15:31:29.704Z,21.80
2022-11-16T15:36:37.777Z,24.90
2022-11-16T15:41:40.319Z,13.40
2022-11-16T15:46:47.335Z,13.33
2022-11-16T15:51:49.666Z,13.33
2022-11-16T15:56:55.453Z,14.27
2022-11-16T16:01:57.938Z,15.07
2022-11-16T16:07:00.963Z,24.40
2022-11-16T16:12:22.569Z,15.57
2022-11-16T16:17:28.139Z,37.10
2022-11-16T16:22:37.427Z,16.57
2022-11-16T16:27:40.799Z,8.80
2022-11-16T16:32:49.626Z,7.93
2022-11-16T16:37:57.599Z,7.63
2022-11-16T16:42:59.899Z,14.73
2022-11-16T16:48:02.280Z,14.53
2022-11-16T16:53:05.306Z,17.47
2022-11-16T16:58:11.648Z,14.17
2022-11-16T17:03:13.998Z,13.80
2022-11-16T17:08:16.291Z,13.53
2022-11-16T17:13:18.636Z,15.93
2022-11-16T17:18:21.849Z,14.93
2022-11-16T17:23:24.155Z,15.87
2022-11-16T17:28:26.468Z,17.73
2022-11-16T17:33:28.819Z,20.13
2022-11-16T17:38:32.356Z,15.97
2022-11-16T17:43:35.379Z,29.10
2022-11-16T17:48:39.626Z,16.50
2022-11-16T17:53:44.286Z,13.30
2022-11-16T17:58:47.670Z,10.47
2022-11-16T18:03:49.991Z,15.17
2022-11-16T18:08:53.078Z,11.63
2022-11-16T18:13:57.993Z,11.80
2022-11-16T18:19:03.725Z,16.73
2022-11-16T18:24:06.337Z,12.83
2022-11-16T18:29:12.649Z,14.60
2022-11-16T18:34:15.486Z,13.70
2022-11-16T18:39:18.101Z,12.60
2022-11-16T18:44:20.537Z,10.10
2022-11-16T18:49:22.835Z,18.70
2022-11-16T18:54:25.179Z,16.03
2022-11-16T18:59:27.637Z,10.40
2022-11-16T19:04:30.030Z,9.17
2022-11-16T19:09:32.359Z,7.60
2022-11-16T19:14:34.751Z,9.73
2022-11-16T19:19:37.093Z,13.30
2022-11-16T19:24:39.557Z,13.63
2022-11-16T19:29:41.865Z,13.20
2022-11-16T19:34:44.238Z,14.23
2022-11-16T19:39:46.535Z,8.70
2022-11-16T19:44:53.085Z,13.17
2022-11-16T19:49:55.423Z,38.73
2022-11-16T19:54:57.699Z,12.27
2022-11-16T20:00:00.389Z,14.67
2022-11-16T20:05:03.266Z,9.17
2022-11-16T20:10:06.515Z,11.40
2022-11-16T20:15:09.310Z,13.20
2022-11-16T20:20:11.767Z,16.87
2022-11-16T20:25:14.965Z,10.47
2022-11-16T20:30:17.314Z,8.83
2022-11-16T20:35:19.743Z,10.80
2022-11-16T20:40:22.095Z,11.47
2022-11-16T20:45:24.684Z,9.87
2022-11-16T20:50:27.326Z,8.03
2022-11-16T20:55:29.613Z,11.30
2022-11-16T21:00:32.101Z,15.50
2022-11-16T21:05:34.442Z,17.00
2022-11-16T21:10:38.117Z,11.13
2022-11-16T21:15:40.431Z,9.23
2022-11-16T21:20:42.673Z,8.90
2022-11-16T21:25:44.997Z,9.73
2022-11-16T21:30:57.670Z,13.10
2022-11-16T21:36:05.003Z,10.83
2022-11-16T21:41:08.562Z,13.17
2022-11-16T21:46:19.626Z,14.18
2022-11-16T21:51:24.842Z,15.97
2022-11-16T21:56:27.209Z,14.27
2022-11-16T22:01:49.577Z,20.40
2022-11-16T22:07:10.631Z,13.57
2022-11-16T22:17:44.253Z,24.80
2022-11-16T22:22:46.886Z,18.17
2022-11-16T22:28:19.246Z,11.40
2022-11-16T22:33:12.475Z,14.93
2022-11-16T22:38:15.188Z,12.90
2022-11-16T22:43:22.162Z,23.07
2022-11-16T22:48:30.277Z,12.93
2022-11-16T22:53:33.488Z,10.93
2022-11-16T22:58:38.453Z,17.70
2022-11-16T23:03:41.469Z,10.57
2022-11-16T23:08:44.353Z,12.17
2022-11-16T23:14:06.942Z,13.27
2022-11-16T23:19:29.721Z,11.47
2022-11-16T23:24:51.217Z,11.07
2022-11-16T23:29:54.657Z,9.97
2022-11-16T23:34:57.514Z,14.30
2022-11-16T23:40:00.230Z,11.33
2022-11-16T23:45:02.939Z,13.97
2022-11-16T23:50:05.864Z,11.33
2022-11-16T23:55:08.797Z,11.57
